createdAt,value
2023-01-11T00:00:49.910Z,98107.81
2023-01-11T00:03:17.471Z,98102.66
2023-01-11T00:05:45.084Z,98097.75
2023-01-11T00:08:12.536Z,98101.50
2023-01-11T00:10:40.180Z,98095.09
2023-01-11T00:13:07.389Z,98085.00
2023-01-11T00:15:38.525Z,98087.72
2023-01-11T00:18:05.776Z,98085.56
2023-01-11T00:20:32.969Z,98079.66
2023-01-11T00:23:00.102Z,98074.50
2023-01-11T00:25:27.214Z,98068.59
2023-01-11T00:27:54.822Z,98075.03
2023-01-11T00:30:22.351Z,98065.69
2023-01-11T00:32:49.394Z,98066.69
2023-01-11T00:35:16.680Z,98071.13
2023-01-11T00:37:43.766Z,98052.00
2023-01-11T00:40:11.136Z,98050.34
2023-01-11T00:42:56.912Z,98052.63
2023-01-11T00:45:42.733Z,98057.63
2023-01-11T00:48:10.790Z,98052.72
2023-01-11T00:50:39.355Z,98041.16
2023-01-11T00:53:07.959Z,98042.44
2023-01-11T00:55:35.322Z,98047.63
2023-01-11T00:58:02.971Z,98030.66
2023-01-11T01:00:30.049Z,98031.16
2023-01-11T01:02:57.137Z,98023.31
2023-01-11T01:05:24.457Z,98022.34
2023-01-11T01:07:51.842Z,98029.50
2023-01-11T01:10:19.505Z,98022.63
2023-01-11T01:13:05.861Z,98029.31
2023-01-11T01:15:33.463Z,98019.22
2023-01-11T01:18:00.739Z,98028.09
2023-01-11T01:20:28.057Z,98022.69
2023-01-11T01:22:55.168Z,98030.06
2023-01-11T01:25:22.863Z,98017.25
2023-01-11T01:27:49.995Z,98015.78
2023-01-11T01:30:17.270Z,98014.78
2023-01-11T01:32:44.397Z,98014.53
2023-01-11T01:35:11.584Z,98009.09
2023-01-11T01:37:38.995Z,97995.28
2023-01-11T01:40:06.749Z,97999.19
2023-01-11T01:42:34.005Z,98003.41
2023-01-11T01:45:04.072Z,98003.44
2023-01-11T01:48:01.294Z,97995.78
2023-01-11T01:50:31.928Z,97997.75
2023-01-11T01:53:09.633Z,97991.34
2023-01-11T01:55:40.085Z,97991.34
2023-01-11T01:58:10.725Z,97987.88
2023-01-11T02:00:42.664Z,97981.69
2023-01-11T02:03:15.248Z,97985.63
2023-01-11T02:05:42.307Z,97983.66
2023-01-11T02:08:12.546Z,97974.31
2023-01-11T02:10:39.874Z,97966.44
2023-01-11T02:13:10.143Z,97962.50
2023-01-11T02:15:38.245Z,97954.38
2023-01-11T02:18:10.162Z,97955.13
2023-01-11T02:20:46.047Z,97959.06
2023-01-11T02:23:33.898Z,97943.28
2023-01-11T02:26:38.493Z,97937.16
2023-01-11T02:29:20.283Z,97944.28
2023-01-11T02:32:05.534Z,97940.88
2023-01-11T02:34:41.935Z,97928.03
2023-01-11T02:37:17.856Z,97939.16
2023-01-11T02:40:15.762Z,97950.03
2023-01-11T02:43:11.308Z,97946.06
2023-01-11T02:45:50.889Z,97934.50
2023-01-11T02:48:39.359Z,97921.44
2023-01-11T02:51:13.285Z,97930.81
2023-01-11T02:53:47.686Z,97927.59
2023-01-11T02:56:21.344Z,97918.50
2023-01-11T02:58:51.249Z,97910.59
2023-01-11T03:01:22.589Z,97907.63
2023-01-11T03:03:50.686Z,97896.28
2023-01-11T03:06:24.296Z,97898.50
2023-01-11T03:09:01.285Z,97894.28
2023-01-11T03:11:57.895Z,97893.81
2023-01-11T03:14:39.740Z,97886.91
2023-01-11T03:17:12.403Z,97884.41
2023-01-11T03:19:51.427Z,97874.28
2023-01-11T03:22:27.506Z,97879.25
2023-01-11T03:25:30.205Z,97883.19
2023-01-11T03:28:03.085Z,97871.09
2023-01-11T03:30:37.482Z,97872.56
2023-01-11T03:33:16.231Z,97872.09
2023-01-11T03:35:47.751Z,97871.59
2023-01-11T03:38:23.745Z,97865.16
2023-01-11T03:40:53.409Z,97868.13
2023-01-11T03:43:21.574Z,97862.94
2023-01-11T03:45:53.684Z,97861.72
2023-01-11T03:48:31.466Z,97856.50
2023-01-11T03:51:00.351Z,97859.22
2023-01-11T03:53:30.710Z,97860.19
2023-01-11T03:55:59.112Z,97847.13
2023-01-11T03:58:27.491Z,97849.84
2023-01-11T04:00:58.114Z,97856.97
2023-01-11T04:03:27.142Z,97843.41
2023-01-11T04:05:58.429Z,97843.16
2023-01-11T04:08:25.892Z,97839.69
2023-01-11T04:10:52.935Z,97830.03
2023-01-11T04:13:20.180Z,97823.88
2023-01-11T04:15:47.205Z,97828.09
2023-01-11T04:18:14.239Z,97836.25
2023-01-11T04:20:41.402Z,97823.16
2023-01-11T04:23:10.292Z,97820.91
2023-01-11T04:25:37.360Z,97819.72
2023-01-11T04:28:04.463Z,97823.41
2023-01-11T04:30:31.903Z,97824.88
2023-01-11T04:32:59.292Z,97815.47
2023-01-11T04:35:27.061Z,97819.19
2023-01-11T04:37:55.387Z,97808.84
2023-01-11T04:40:22.898Z,97814.53
2023-01-11T04:42:49.942Z,97817.03
2023-01-11T04:45:17.060Z,97810.81
2023-01-11T04:47:44.183Z,97801.69
2023-01-11T04:50:11.912Z,97820.72
2023-01-11T04:52:41.466Z,97809.09
2023-01-11T04:55:09.297Z,97818.50
2023-01-11T04:57:36.455Z,97823.19
2023-01-11T05:00:08.642Z,97814.03
2023-01-11T05:02:35.696Z,97818.22
2023-01-11T05:05:03.832Z,97811.59
2023-01-11T05:07:31.205Z,97828.84
2023-01-11T05:09:58.243Z,97818.50
2023-01-11T05:12:25.278Z,97816.00
2023-01-11T05:14:52.400Z,97813.53
2023-01-11T05:17:19.447Z,97810.09
2023-01-11T05:19:46.558Z,97811.78
2023-01-11T05:22:13.643Z,97803.16
2023-01-11T05:24:40.719Z,97802.66
2023-01-11T05:27:07.832Z,97794.25
2023-01-11T05:29:34.863Z,97798.94
2023-01-11T05:32:02.034Z,97793.50
2023-01-11T05:34:29.142Z,97797.47
2023-01-11T05:36:56.171Z,97800.41
2023-01-11T05:39:23.878Z,97799.44
2023-01-11T05:41:50.930Z,97798.44
2023-01-11T05:44:37.291Z,97794.97
2023-01-11T05:47:04.399Z,97793.97
2023-01-11T05:49:31.453Z,97802.34
2023-01-11T05:51:58.512Z,97793.22
2023-01-11T05:54:25.653Z,97789.78
2023-01-11T05:56:52.719Z,97787.53
2023-01-11T05:59:19.721Z,97794.72
2023-01-11T06:01:46.986Z,97784.81
2023-01-11T06:04:14.513Z,97785.81
2023-01-11T06:06:41.635Z,97784.09
2023-01-11T06:09:08.928Z,97788.28
2023-01-11T06:11:35.990Z,97774.19
2023-01-11T06:14:03.020Z,97782.84
2023-01-11T06:16:30.510Z,97790.72
2023-01-11T06:18:57.552Z,97785.56
2023-01-11T06:21:25.141Z,97780.34
2023-01-11T06:23:52.255Z,97787.78
2023-01-11T06:26:21.252Z,97788.28
2023-01-11T06:28:49.300Z,97779.16
2023-01-11T06:31:17.876Z,97775.69
2023-01-11T06:33:45.847Z,97774.44
2023-01-11T06:36:14.258Z,97779.16
2023-01-11T06:38:41.704Z,97776.91
2023-01-11T06:41:10.703Z,97773.72
2023-01-11T06:43:38.546Z,97776.66
2023-01-11T06:46:05.721Z,97779.38
2023-01-11T06:48:32.766Z,97775.13
2023-01-11T06:51:00.117Z,97780.06
2023-01-11T06:53:29.000Z,97773.59
2023-01-11T06:55:57.563Z,97766.16
2023-01-11T06:58:26.002Z,97777.28
2023-01-11T07:00:54.819Z,97772.09
2023-01-11T07:03:26.063Z,97770.59
2023-01-11T07:05:54.151Z,97781.47
2023-01-11T07:08:21.219Z,97793.56
2023-01-11T07:10:48.564Z,97768.59
2023-01-11T07:13:17.169Z,97776.72
2023-01-11T07:15:45.620Z,97774.47
2023-01-11T07:18:12.807Z,97775.19
2023-01-11T07:20:40.553Z,97774.41
2023-01-11T07:23:08.074Z,97762.00
2023-01-11T07:25:35.505Z,97761.00
2023-01-11T07:28:05.236Z,97772.34
2023-01-11T07:30:41.929Z,97761.44
2023-01-11T07:33:16.494Z,97756.50
2023-01-11T07:35:43.592Z,97769.63
2023-01-11T07:38:11.347Z,97757.00
2023-01-11T07:40:39.865Z,97756.50
2023-01-11T07:43:14.816Z,97760.72
2023-01-11T07:45:46.376Z,97758.53
2023-01-11T07:48:15.193Z,97765.75
2023-01-11T07:50:44.779Z,97768.75
2023-01-11T07:53:13.168Z,97768.25
2023-01-11T07:55:40.926Z,97758.13
2023-01-11T07:58:12.294Z,97757.38
2023-01-11T08:00:41.316Z,97760.09
2023-01-11T08:03:09.023Z,97755.13
2023-01-11T08:05:36.188Z,97757.03
2023-01-11T08:08:03.797Z,97752.78
2023-01-11T08:10:30.835Z,97756.25
2023-01-11T08:13:16.825Z,97755.78
2023-01-11T08:15:43.970Z,97749.31
2023-01-11T08:18:11.803Z,97751.81
2023-01-11T08:20:39.925Z,97742.09
2023-01-11T08:23:08.467Z,97750.53
2023-01-11T08:25:35.770Z,97745.81
2023-01-11T08:28:04.413Z,97743.56
2023-01-11T08:30:31.525Z,97742.81
2023-01-11T08:33:00.768Z,97739.34
2023-01-11T08:35:27.981Z,97745.28
2023-01-11T08:37:55.043Z,97750.88
2023-01-11T08:40:24.113Z,97753.84
2023-01-11T08:42:56.594Z,97744.88
2023-01-11T08:45:23.835Z,97761.69
2023-01-11T08:47:51.928Z,97752.97
2023-01-11T08:50:19.719Z,97759.16
2023-01-11T08:52:48.417Z,97754.69
2023-01-11T08:55:15.514Z,97748.97
2023-01-11T08:57:42.630Z,97743.00
2023-01-11T09:00:10.262Z,97735.75
2023-01-11T09:02:37.395Z,97733.03
2023-01-11T09:05:04.733Z,97748.56
2023-01-11T09:07:31.764Z,97737.91
2023-01-11T09:09:58.792Z,97737.63
2023-01-11T09:12:27.595Z,97739.31
2023-01-11T09:14:54.669Z,97736.31
2023-01-11T09:17:21.805Z,97736.75
2023-01-11T09:19:49.001Z,97734.50
2023-01-11T09:22:16.257Z,97727.28
2023-01-11T09:24:43.319Z,97726.78
2023-01-11T09:27:11.805Z,97726.72
2023-01-11T09:29:39.122Z,97726.41
2023-01-11T09:32:06.595Z,97720.69
2023-01-11T09:34:35.059Z,97715.25
2023-01-11T09:37:07.098Z,97710.00
2023-01-11T09:39:35.132Z,97712.47
2023-01-11T09:42:12.107Z,97704.50
2023-01-11T09:44:49.877Z,97707.91
2023-01-11T09:47:43.746Z,97712.31
2023-01-11T09:50:21.814Z,97711.75
2023-01-11T09:52:55.361Z,97715.13
2023-01-11T09:55:33.183Z,97712.84
2023-01-11T09:58:38.522Z,97700.41
2023-01-11T10:01:22.956Z,97708.28
2023-01-11T10:04:04.087Z,97693.84
2023-01-11T10:06:50.084Z,97703.91
2023-01-11T10:18:28.361Z,97691.59
2023-01-11T10:19:34.174Z,97691.84
2023-01-11T10:22:12.778Z,97693.78
2023-01-11T10:24:42.656Z,97691.47
2023-01-11T10:27:20.329Z,97698.63
2023-01-11T10:30:07.172Z,97687.41
2023-01-11T10:32:58.045Z,97689.59
2023-01-11T10:35:47.816Z,97670.72
2023-01-11T10:38:38.409Z,97676.41
2023-01-11T10:41:26.388Z,97667.16
2023-01-11T10:44:02.811Z,97670.09
2023-01-11T10:46:30.375Z,97665.09
2023-01-11T10:49:04.636Z,97668.56
2023-01-11T10:51:44.024Z,97669.28
2023-01-11T10:54:16.599Z,97662.03
2023-01-11T10:57:03.569Z,97661.84
2023-01-11T10:59:46.817Z,97649.84
2023-01-11T11:02:29.081Z,97663.50
2023-01-11T11:05:05.109Z,97657.97
2023-01-11T11:08:02.246Z,97662.81
2023-01-11T11:10:35.403Z,97644.88
2023-01-11T11:13:14.616Z,97638.03
2023-01-11T11:15:56.049Z,97643.84
2023-01-11T11:18:23.789Z,97634.38
2023-01-11T11:20:50.850Z,97643.53
2023-01-11T11:23:21.884Z,97628.41
2023-01-11T11:25:53.763Z,97637.53
2023-01-11T11:28:32.064Z,97629.53
2023-01-11T11:31:02.037Z,97629.66
2023-01-11T11:33:37.621Z,97630.91
2023-01-11T11:36:09.330Z,97618.94
2023-01-11T11:39:00.944Z,97622.28
2023-01-11T11:41:28.097Z,97610.72
2023-01-11T11:44:13.586Z,97605.66
2023-01-11T11:46:40.643Z,97598.00
2023-01-11T11:49:13.110Z,97598.72
2023-01-11T11:51:41.223Z,97585.78
2023-01-11T11:54:17.800Z,97585.47
2023-01-11T11:56:44.927Z,97586.75
2023-01-11T11:59:16.172Z,97578.56
2023-01-11T12:01:46.995Z,97585.88
2023-01-11T12:04:17.189Z,97590.31
2023-01-11T12:06:46.465Z,97575.38
2023-01-11T12:09:29.586Z,97586.31
2023-01-11T12:11:57.164Z,97585.56
2023-01-11T12:14:28.239Z,97584.00
2023-01-11T12:16:57.571Z,97580.66
2023-01-11T12:19:35.274Z,97584.34
2023-01-11T12:22:17.654Z,97580.03
2023-01-11T12:24:46.508Z,97578.69
2023-01-11T12:27:35.454Z,97578.78
2023-01-11T12:30:31.276Z,97582.88
2023-01-11T12:33:08.868Z,97581.53
2023-01-11T12:35:44.299Z,97581.94
2023-01-11T12:38:31.498Z,97573.63
2023-01-11T12:41:12.585Z,97574.38
2023-01-11T12:43:58.356Z,97572.91
2023-01-11T12:46:43.232Z,97567.03
2023-01-11T12:49:51.405Z,97574.16
2023-01-11T12:52:49.984Z,97568.47
2023-01-11T12:55:32.333Z,97579.19
2023-01-11T12:58:08.751Z,97577.28
2023-01-11T13:00:45.101Z,97582.34
2023-01-11T13:03:41.198Z,97571.94
2023-01-11T13:06:19.857Z,97576.75
2023-01-11T13:08:57.468Z,97576.84
2023-01-11T13:11:45.706Z,97577.44
2023-01-11T13:14:28.537Z,97581.00
2023-01-11T13:17:20.287Z,97574.34
2023-01-11T13:19:58.155Z,97572.22
2023-01-11T13:22:29.940Z,97574.31
2023-01-11T13:24:59.274Z,97579.34
2023-01-11T13:27:28.100Z,97582.13
2023-01-11T13:29:56.554Z,97590.84
2023-01-11T13:32:26.295Z,97581.94
2023-01-11T13:35:14.375Z,97566.38
2023-01-11T13:37:44.807Z,97588.50
2023-01-11T13:40:21.007Z,97595.22
2023-01-11T13:42:54.690Z,97586.09
2023-01-11T13:45:25.735Z,97593.53
2023-01-11T13:47:58.481Z,97597.28
2023-01-11T13:50:29.469Z,97593.81
2023-01-11T13:53:10.093Z,97582.97
2023-01-11T13:55:46.499Z,97589.69
2023-01-11T13:58:25.363Z,97601.84
2023-01-11T14:01:00.644Z,97590.72
2023-01-11T14:03:42.056Z,97584.53
2023-01-11T14:06:34.933Z,97604.16
2023-01-11T14:09:30.864Z,97602.16
2023-01-11T14:12:11.103Z,97599.72
2023-01-11T14:15:23.028Z,97599.72
2023-01-11T14:18:18.451Z,97593.53
2023-01-11T14:20:51.097Z,97605.69
2023-01-11T14:23:26.127Z,97609.16
2023-01-11T14:26:14.944Z,97609.88
2023-01-11T14:28:57.719Z,97608.19
2023-01-11T14:31:35.807Z,97616.38
2023-01-11T14:34:21.889Z,97612.38
2023-01-11T14:37:04.784Z,97620.34
2023-01-11T14:39:53.713Z,97624.34
2023-01-11T14:42:41.451Z,97618.16
2023-01-11T14:45:18.730Z,97624.81
2023-01-11T14:48:11.297Z,97630.81
2023-01-11T14:51:05.660Z,97628.06
2023-01-11T14:53:38.015Z,97619.91
2023-01-11T14:56:05.208Z,97631.09
2023-01-11T14:58:32.641Z,97624.91
2023-01-11T15:01:00.046Z,97631.09
2023-01-11T15:03:37.388Z,97637.06
2023-01-11T15:06:16.719Z,97625.94
2023-01-11T15:08:51.725Z,97637.88
2023-01-11T15:11:33.219Z,97626.22
2023-01-11T15:14:20.719Z,97633.47
2023-01-11T15:17:11.941Z,97629.75
2023-01-11T15:19:41.624Z,97638.44
2023-01-11T15:22:22.207Z,97641.69
2023-01-11T15:24:55.932Z,97640.22
2023-01-11T15:27:38.586Z,97643.47
2023-01-11T15:30:10.698Z,97639.22
2023-01-11T15:32:37.748Z,97646.66
2023-01-11T15:35:17.086Z,97643.94
2023-01-11T15:37:57.192Z,97649.19
2023-01-11T15:40:29.511Z,97652.63
2023-01-11T15:43:18.351Z,97656.84
2023-01-11T15:46:13.614Z,97651.38
2023-01-11T15:49:11.681Z,97643.22
2023-01-11T15:52:08.575Z,97660.06
2023-01-11T15:54:47.724Z,97663.31
2023-01-11T15:57:26.636Z,97664.56
2023-01-11T16:00:30.948Z,97667.28
2023-01-11T16:03:38.114Z,97676.00
2023-01-11T16:06:19.324Z,97679.19
2023-01-11T16:09:01.291Z,97677.97
2023-01-11T16:11:45.684Z,97677.97
2023-01-11T16:14:28.394Z,97674.53
2023-01-11T16:16:55.788Z,97686.63
2023-01-11T16:19:25.383Z,97687.16
2023-01-11T16:21:55.356Z,97695.09
2023-01-11T16:24:26.760Z,97701.28
2023-01-11T16:27:00.342Z,97705.78
2023-01-11T16:29:34.421Z,97710.50
2023-01-11T16:32:02.971Z,97715.69
2023-01-11T16:34:39.481Z,97716.44
2023-01-11T16:37:30.446Z,97719.66
2023-01-11T16:40:01.820Z,97720.19
2023-01-11T16:42:32.960Z,97717.69
2023-01-11T16:45:01.889Z,97725.63
2023-01-11T16:47:29.038Z,97725.41
2023-01-11T16:50:14.434Z,97726.88
2023-01-11T16:53:05.097Z,97733.06
2023-01-11T16:55:40.558Z,97738.00
2023-01-11T16:58:21.603Z,97743.44
2023-01-11T17:01:08.956Z,97742.94
2023-01-11T17:03:54.183Z,97753.84
2023-01-11T17:06:23.304Z,97749.13
2023-01-11T17:08:52.241Z,97751.09
2023-01-11T17:11:24.296Z,97751.84
2023-01-11T17:14:28.084Z,97754.31
2023-01-11T17:17:00.246Z,97760.28
2023-01-11T17:19:32.666Z,97766.97
2023-01-11T17:22:04.632Z,97774.88
2023-01-11T17:24:35.565Z,97781.81
2023-01-11T17:27:02.963Z,97768.69
2023-01-11T17:29:34.051Z,97771.44
2023-01-11T17:32:03.003Z,97780.34
2023-01-11T17:34:37.782Z,97781.81
2023-01-11T17:37:10.698Z,97783.81
2023-01-11T17:39:40.654Z,97788.50
2023-01-11T17:42:30.819Z,97784.31
2023-01-11T17:45:13.309Z,97785.78
2023-01-11T17:47:46.324Z,97786.53
2023-01-11T17:50:27.578Z,97781.81
2023-01-11T17:53:02.632Z,97780.84
2023-01-11T17:55:30.010Z,97786.81
2023-01-11T17:58:20.174Z,97785.06
2023-01-11T18:01:08.388Z,97792.25
2023-01-11T18:03:48.679Z,97792.25
2023-01-11T18:06:34.570Z,97798.44
2023-01-11T18:09:06.533Z,97799.47
2023-01-11T18:11:38.662Z,97801.19
2023-01-11T18:14:08.073Z,97803.47
2023-01-11T18:16:35.202Z,97804.47
2023-01-11T18:19:22.144Z,97802.78
2023-01-11T18:21:53.754Z,97819.41
2023-01-11T18:24:34.865Z,97823.13
2023-01-11T18:27:17.532Z,97819.66
2023-01-11T18:29:44.492Z,97820.16
2023-01-11T18:32:12.894Z,97821.94
2023-01-11T18:34:41.429Z,97820.44
2023-01-11T18:37:10.012Z,97829.59
2023-01-11T18:39:37.112Z,97826.88
2023-01-11T18:42:07.980Z,97831.38
2023-01-11T18:44:43.124Z,97835.06
2023-01-11T18:47:20.939Z,97835.06
2023-01-11T18:49:49.551Z,97837.78
2023-01-11T18:52:17.108Z,97839.75
2023-01-11T18:54:44.326Z,97847.41
2023-01-11T18:57:11.634Z,97855.38
2023-01-11T18:59:38.988Z,97859.56
2023-01-11T19:04:51.999Z,97856.09
2023-01-11T19:07:19.437Z,97870.44
2023-01-11T19:09:46.563Z,97869.47
2023-01-11T19:12:13.929Z,97873.44
2023-01-11T19:14:41.276Z,97877.41
2023-01-11T19:17:09.804Z,97888.31
2023-01-11T19:19:37.396Z,97882.88
2023-01-11T19:22:04.776Z,97883.91
2023-01-11T19:24:32.183Z,97886.38
2023-01-11T19:26:59.737Z,97885.16
2023-01-11T19:29:26.883Z,97901.50
2023-01-11T19:31:55.644Z,97896.06
2023-01-11T19:34:23.264Z,97895.34
2023-01-11T19:36:51.873Z,97907.22
2023-01-11T19:39:18.936Z,97903.28
2023-01-11T19:41:55.173Z,97907.97
2023-01-11T19:44:23.031Z,97907.97
2023-01-11T19:47:00.284Z,97901.31
2023-01-11T19:49:36.710Z,97911.97
2023-01-11T19:52:03.949Z,97915.94
2023-01-11T19:54:30.967Z,97915.69
2023-01-11T19:56:58.055Z,97916.94
2023-01-11T19:59:25.092Z,97925.84
2023-01-11T20:01:52.203Z,97919.41
2023-01-11T20:04:20.873Z,97926.06
2023-01-11T20:06:51.928Z,97925.84
2023-01-11T20:09:20.006Z,97939.22
2023-01-11T20:11:49.209Z,97935.25
2023-01-11T20:14:16.816Z,97948.13
2023-01-11T20:16:43.936Z,97945.44
2023-01-11T20:19:11.143Z,97956.78
2023-01-11T20:21:38.219Z,97966.69
2023-01-11T20:24:05.679Z,97964.47
2023-01-11T20:26:33.975Z,97971.38
2023-01-11T20:29:01.611Z,97989.44
2023-01-11T20:31:31.613Z,97985.47
2023-01-11T20:34:01.342Z,97984.00
2023-01-11T20:36:28.653Z,97986.75
2023-01-11T20:38:56.322Z,97993.66
2023-01-11T20:41:43.850Z,97994.38
2023-01-11T20:44:11.484Z,97999.59
2023-01-11T20:46:38.853Z,98005.25
2023-01-11T20:49:07.723Z,98010.41
2023-01-11T20:51:35.370Z,98012.91
2023-01-11T20:54:03.280Z,98017.09
2023-01-11T20:56:30.395Z,98018.81
2023-01-11T20:58:57.444Z,98022.78
2023-01-11T21:01:27.177Z,98030.69
2023-01-11T21:03:55.336Z,98033.91
2023-01-11T21:06:22.388Z,98033.16
2023-01-11T21:08:49.440Z,98036.59
2023-01-11T21:11:16.485Z,98040.31
2023-01-11T21:13:43.623Z,98040.28
2023-01-11T21:16:15.301Z,98033.13
2023-01-11T21:18:44.031Z,98036.06
2023-01-11T21:21:18.050Z,98031.13
2023-01-11T21:23:45.733Z,98033.34
2023-01-11T21:26:14.001Z,98034.81
2023-01-11T21:28:41.610Z,98037.53
2023-01-11T21:31:10.531Z,98031.13
2023-01-11T21:33:39.186Z,98033.56
2023-01-11T21:36:10.225Z,98046.41
2023-01-11T21:38:38.739Z,98038.75
2023-01-11T21:41:11.880Z,98048.13
2023-01-11T21:43:39.245Z,98047.88
2023-01-11T21:46:07.016Z,98045.88
2023-01-11T21:48:34.050Z,98054.75
2023-01-11T21:51:01.297Z,98044.41
2023-01-11T21:53:32.298Z,98041.19
2023-01-11T21:56:04.074Z,98033.50
2023-01-11T21:58:31.121Z,98038.69
2023-01-11T22:00:58.250Z,98036.22
2023-01-11T22:03:28.913Z,98037.44
2023-01-11T22:06:00.673Z,98028.78
2023-01-11T22:08:28.068Z,98031.25
2023-01-11T22:10:57.067Z,98041.84
2023-01-11T22:13:24.482Z,98029.00
2023-01-11T22:15:52.286Z,98042.56
2023-01-11T22:18:19.460Z,98042.56
2023-01-11T22:20:46.488Z,98040.59
2023-01-11T22:23:13.505Z,98045.28
2023-01-11T22:25:40.526Z,98054.91
2023-01-11T22:28:07.579Z,98057.88
2023-01-11T22:30:34.608Z,98057.13
2023-01-11T22:33:01.676Z,98063.06
2023-01-11T22:35:29.360Z,98058.84
2023-01-11T22:37:56.701Z,98064.50
2023-01-11T22:40:24.618Z,98064.00
2023-01-11T22:42:51.744Z,98065.97
2023-01-11T22:45:18.904Z,98057.09
2023-01-11T22:47:47.382Z,98064.97
2023-01-11T22:50:14.739Z,98065.72
2023-01-11T22:52:41.801Z,98056.84
2023-01-11T22:55:09.014Z,98060.06
2023-01-11T22:57:36.070Z,98063.00
2023-01-11T23:00:04.918Z,98070.69
2023-01-11T23:02:31.989Z,98073.16
2023-01-11T23:04:59.076Z,98066.53
2023-01-11T23:07:26.111Z,98057.91
2023-01-11T23:09:53.173Z,98064.31
2023-01-11T23:12:38.914Z,98057.19
2023-01-11T23:15:06.508Z,98062.88
2023-01-11T23:17:33.534Z,98075.97
2023-01-11T23:20:00.559Z,98073.00
2023-01-11T23:22:27.645Z,98065.38
2023-01-11T23:24:54.686Z,98064.16
2023-01-11T23:27:22.132Z,98064.16
2023-01-11T23:29:49.192Z,98059.47
2023-01-11T23:32:16.264Z,98064.94
2023-01-11T23:34:43.276Z,98058.03
2023-01-11T23:37:10.332Z,98053.56
2023-01-11T23:39:37.418Z,98041.97
2023-01-11T23:42:22.950Z,98041.72
2023-01-11T23:44:50.032Z,98035.81
2023-01-11T23:47:23.873Z,98035.06
2023-01-11T23:49:53.528Z,98043.47
2023-01-11T23:52:23.176Z,98042.25
2023-01-11T23:54:50.499Z,98034.09
2023-01-11T23:57:18.646Z,98029.91
2023-01-11T23:59:45.969Z,98029.41
